Time;durP1;ratioP1;P1;durP2;ratioP2;P2;SDS_P1;SDS_P2;PMS_P1;PMS_P2;Temp;Humidity;BMP_temperature;BMP_pressure;BME280_temperature;BME280_humidity;BME280_pressure;Samples;Min_cycle;Max_cycle;Signal;HPM_P1;HPM_P2
2022/05/31 00:00:48;;;;;;;42.38;15.43;;;;;;;;;;8357773;28;20048;-85
2022/05/31 00:04:52;;;;;;;21.70;9.60;;;;;;;;;;8361390;28;20056;-85
2022/05/31 00:08:55;;;;;;;23.30;9.48;;;;;;;;;;8366655;28;20067;-85
2022/05/31 00:12:58;;;;;;;13.30;8.00;;;;;;;;;;8347679;28;20045;-85
2022/05/31 00:17:01;;;;;;;16.52;8.38;;;;;;;;;;8364986;28;20049;-85
2022/05/31 00:21:04;;;;;;;11.73;7.60;;;;;;;;;;8360459;28;20049;-85
2022/05/31 00:25:09;;;;;;;11.10;7.03;;;;;;;;;;8366291;28;20044;-85
2022/05/31 00:29:13;;;;;;;15.27;7.10;;;;;;;;;;8366119;28;20094;-85
2022/05/31 00:33:15;;;;;;;12.00;7.32;;;;;;;;;;8365999;28;20047;-85
2022/05/31 00:37:18;;;;;;;9.95;6.30;;;;;;;;;;8365800;28;20045;-85
2022/05/31 00:41:26;;;;;;;14.23;6.78;;;;;;;;;;8359452;28;20044;-85
2022/05/31 00:45:36;;;;;;;10.63;5.97;;;;;;;;;;8360061;28;20480;-85
2022/05/31 00:49:42;;;;;;;10.35;6.63;;;;;;;;;;8365513;28;20052;-85
2022/05/31 00:53:48;;;;;;;11.85;6.63;;;;;;;;;;8349396;28;20072;-86
2022/05/31 00:57:56;;;;;;;7.95;5.68;;;;;;;;;;8347074;28;20045;-85
2022/05/31 01:01:58;;;;;;;11.07;6.55;;;;;;;;;;8359837;28;20045;-85
2022/05/31 01:06:01;;;;;;;10.18;6.53;;;;;;;;;;8365481;28;20055;-85
2022/05/31 01:10:05;;;;;;;10.43;6.90;;;;;;;;;;8357008;28;20046;-85
2022/05/31 01:14:10;;;;;;;12.50;6.40;;;;;;;;;;8354255;28;20076;-86
2022/05/31 01:18:14;;;;;;;12.15;6.35;;;;;;;;;;8355735;28;20045;-85
2022/05/31 01:22:18;;;;;;;13.30;7.07;;;;;;;;;;8364461;28;20045;-85
2022/05/31 01:26:32;;;;;;;11.38;7.00;;;;;;;;;;8359745;28;20055;-85
2022/05/31 01:30:41;;;;;;;11.68;6.55;;;;;;;;;;8364310;28;20102;-85
2022/05/31 01:34:52;;;;;;;10.55;6.82;;;;;;;;;;8364121;28;20086;-85
2022/05/31 01:39:01;;;;;;;10.10;6.60;;;;;;;;;;8364054;28;20458;-86
2022/05/31 01:43:04;;;;;;;11.40;6.82;;;;;;;;;;8363927;28;20052;-85
2022/05/31 01:47:06;;;;;;;11.93;6.40;;;;;;;;;;8360074;28;20045;-85
2022/05/31 01:51:11;;;;;;;12.07;6.72;;;;;;;;;;8363007;28;20048;-85
2022/05/31 01:55:15;;;;;;;12.05;6.60;;;;;;;;;;8364042;28;20511;-85
2022/05/31 01:59:20;;;;;;;9.07;6.50;;;;;;;;;;8363882;28;20147;-85
2022/05/31 02:03:23;;;;;;;13.93;6.65;;;;;;;;;;8345312;28;20053;-86
2022/05/31 02:07:27;;;;;;;12.00;6.22;;;;;;;;;;8360584;28;20492;-86
2022/05/31 02:11:31;;;;;;;14.02;6.18;;;;;;;;;;8357169;28;20500;-86
2022/05/31 02:15:34;;;;;;;9.63;5.75;;;;;;;;;;8356595;28;20053;-86
2022/05/31 02:19:37;;;;;;;12.88;6.57;;;;;;;;;;8363091;28;20110;-86
2022/05/31 02:23:39;;;;;;;11.45;6.25;;;;;;;;;;8363021;28;20041;-86
2022/05/31 02:27:43;;;;;;;120.30;44.75;;;;;;;;;;8362977;28;20061;-86
2022/05/31 02:31:46;;;;;;;63.28;27.50;;;;;;;;;;8362937;28;20045;-86
2022/05/31 02:35:48;;;;;;;30.88;15.20;;;;;;;;;;8362939;28;20123;-86
2022/05/31 02:39:51;;;;;;;23.20;12.75;;;;;;;;;;8362877;28;20052;-86
2022/05/31 02:43:55;;;;;;;15.15;7.68;;;;;;;;;;8362821;28;20049;-86
2022/05/31 02:47:57;;;;;;;10.77;6.68;;;;;;;;;;8362708;28;20052;-86
2022/05/31 02:52:00;;;;;;;10.05;5.97;;;;;;;;;;8362581;28;20049;-86
2022/05/31 02:56:03;;;;;;;11.55;5.38;;;;;;;;;;8362652;28;20385;-86
2022/05/31 03:00:10;;;;;;;14.10;6.68;;;;;;;;;;8362431;28;20049;-86
2022/05/31 03:04:14;;;;;;;10.57;6.32;;;;;;;;;;8368033;28;20072;-86
2022/05/31 03:08:16;;;;;;;12.07;5.97;;;;;;;;;;8368656;28;20045;-86
2022/05/31 03:12:21;;;;;;;12.32;6.20;;;;;;;;;;8369452;28;20052;-86
2022/05/31 03:16:25;;;;;;;10.32;5.95;;;;;;;;;;8368247;28;20068;-87
2022/05/31 03:20:33;;;;;;;10.40;5.88;;;;;;;;;;8368273;28;20045;-87
2022/05/31 03:24:39;;;;;;;9.05;6.18;;;;;;;;;;8368213;28;20041;-86
2022/05/31 03:28:42;;;;;;;11.88;6.47;;;;;;;;;;8368161;28;20131;-87
2022/05/31 03:32:46;;;;;;;12.38;6.30;;;;;;;;;;8367798;28;20045;-86
2022/05/31 03:36:49;;;;;;;10.20;6.38;;;;;;;;;;8367804;28;20502;-87
2022/05/31 03:40:58;;;;;;;9.88;6.13;;;;;;;;;;8367756;28;20041;-87
2022/05/31 03:45:01;;;;;;;18.52;8.02;;;;;;;;;;8367560;28;20411;-87
2022/05/31 03:49:05;;;;;;;16.58;9.30;;;;;;;;;;8367396;28;20055;-87
2022/05/31 03:53:08;;;;;;;13.70;8.48;;;;;;;;;;8367205;28;20045;-87
2022/05/31 03:57:14;;;;;;;12.07;7.65;;;;;;;;;;8360867;28;20045;-87
2022/05/31 04:01:18;;;;;;;11.55;6.88;;;;;;;;;;8360844;28;20098;-87
2022/05/31 04:05:22;;;;;;;10.13;7.13;;;;;;;;;;8360467;28;20102;-87
2022/05/31 04:09:25;;;;;;;11.10;6.93;;;;;;;;;;8366740;28;20045;-87
2022/05/31 04:13:28;;;;;;;15.13;6.85;;;;;;;;;;8366085;28;20070;-88
2022/05/31 04:17:31;;;;;;;11.30;7.03;;;;;;;;;;8366511;28;20048;-87
2022/05/31 04:21:35;;;;;;;12.60;7.43;;;;;;;;;;8366424;28;20049;-87
2022/05/31 04:25:39;;;;;;;14.10;7.80;;;;;;;;;;8366126;28;20051;-87
2022/05/31 04:29:41;;;;;;;13.95;8.98;;;;;;;;;;8366054;28;20477;-87
2022/05/31 04:33:44;;;;;;;14.93;8.82;;;;;;;;;;8366028;28;20052;-87
2022/05/31 04:37:48;;;;;;;20.52;10.10;;;;;;;;;;8365932;28;20106;-87
2022/05/31 04:41:50;;;;;;;16.17;9.40;;;;;;;;;;8365801;28;20412;-86
2022/05/31 04:45:53;;;;;;;16.70;11.25;;;;;;;;;;8365596;28;20060;-86
2022/05/31 04:49:56;;;;;;;19.35;11.10;;;;;;;;;;8365430;28;20049;-86
2022/05/31 04:54:00;;;;;;;15.63;10.63;;;;;;;;;;8365830;28;20374;-86
2022/05/31 04:58:03;;;;;;;18.40;11.93;;;;;;;;;;8365199;28;20049;-86
2022/05/31 05:02:05;;;;;;;15.10;9.32;;;;;;;;;;8365111;28;20098;-87
2022/05/31 05:06:09;;;;;;;16.25;9.35;;;;;;;;;;8365043;28;20435;-86
2022/05/31 05:10:14;;;;;;;14.80;9.52;;;;;;;;;;8364803;28;20496;-87
2022/05/31 05:14:17;;;;;;;15.18;10.38;;;;;;;;;;8364529;28;20408;-86
2022/05/31 05:18:19;;;;;;;18.75;12.55;;;;;;;;;;8364709;28;20048;-86
2022/05/31 05:22:22;;;;;;;15.38;12.07;;;;;;;;;;8358629;28;20049;-86
2022/05/31 05:26:26;;;;;;;20.88;11.88;;;;;;;;;;8364113;28;20534;-86
2022/05/31 05:30:41;;;;;;;17.80;11.90;;;;;;;;;;8364202;28;20049;-86
2022/05/31 05:34:44;;;;;;;21.27;12.32;;;;;;;;;;8364675;28;20542;-86
2022/05/31 05:38:46;;;;;;;19.23;11.27;;;;;;;;;;8364073;28;20044;-86
2022/05/31 05:42:50;;;;;;;15.55;10.85;;;;;;;;;;8363877;28;20049;-90
2022/05/31 05:46:53;;;;;;;14.77;8.95;;;;;;;;;;8364077;28;20041;-94
2022/05/31 05:50:55;;;;;;;13.50;9.48;;;;;;;;;;8363713;28;20052;-87
2022/05/31 05:54:58;;;;;;;16.67;9.95;;;;;;;;;;8364457;28;20040;-87
2022/05/31 05:59:02;;;;;;;15.73;9.13;;;;;;;;;;8364875;28;20045;-87
2022/05/31 06:03:08;;;;;;;18.52;8.63;;;;;;;;;;8363739;28;20072;-88
2022/05/31 06:07:15;;;;;;;14.52;7.90;;;;;;;;;;8362445;28;20041;-88
2022/05/31 06:11:20;;;;;;;12.27;8.23;;;;;;;;;;8363295;28;20041;-88
2022/05/31 06:15:30;;;;;;;10.18;7.50;;;;;;;;;;8363007;28;20045;-87
2022/05/31 06:19:35;;;;;;;10.35;6.40;;;;;;;;;;8363179;28;20097;-88
2022/05/31 06:23:38;;;;;;;11.80;6.90;;;;;;;;;;8363122;28;20045;-88
2022/05/31 06:27:41;;;;;;;11.40;6.28;;;;;;;;;;8362985;28;20076;-88
2022/05/31 06:31:45;;;;;;;9.52;6.03;;;;;;;;;;8363222;28;20045;-90
2022/05/31 06:35:47;;;;;;;9.18;4.50;;;;;;;;;;8364744;28;20056;-88
2022/05/31 06:39:50;;;;;;;10.32;4.82;;;;;;;;;;8369483;28;20049;-88
2022/05/31 06:43:52;;;;;;;6.68;4.50;;;;;;;;;;8369891;28;20056;-89
2022/05/31 06:47:56;;;;;;;9.60;4.93;;;;;;;;;;8369374;28;20041;-88
2022/05/31 07:00:39;;;;;;;6.45;4.05;;;;;;;;;;8368987;28;20037;-88
2022/05/31 07:04:43;;;;;;;8.77;3.85;;;;;;;;;;8369041;28;20425;-85
2022/05/31 07:08:46;;;;;;;5.18;3.28;;;;;;;;;;8368737;28;20400;-86
2022/05/31 07:12:48;;;;;;;6.57;3.13;;;;;;;;;;8368508;28;20052;-87
2022/05/31 07:16:51;;;;;;;6.60;3.50;;;;;;;;;;8368472;28;20080;-86
2022/05/31 07:20:55;;;;;;;8.95;3.35;;;;;;;;;;8368374;28;20174;-88
2022/05/31 07:24:58;;;;;;;6.15;3.40;;;;;;;;;;8368300;28;20049;-86
2022/05/31 07:29:01;;;;;;;6.35;3.20;;;;;;;;;;8368166;28;20116;-86
2022/05/31 07:33:03;;;;;;;6.35;3.70;;;;;;;;;;8367938;28;20049;-85
2022/05/31 07:37:07;;;;;;;4.00;2.75;;;;;;;;;;8367870;28;20386;-87
2022/05/31 07:41:10;;;;;;;4.60;2.97;;;;;;;;;;8367689;28;20422;-88
2022/05/31 07:45:13;;;;;;;3.42;2.60;;;;;;;;;;8367678;28;20092;-86
2022/05/31 07:49:16;;;;;;;5.13;3.30;;;;;;;;;;8366611;28;20511;-86
2022/05/31 07:53:19;;;;;;;4.93;2.47;;;;;;;;;;8367721;28;20416;-87
2022/05/31 08:01:42;;;;;;;4.10;2.13;;;;;;;;;;8367305;28;20044;-86
2022/05/31 08:05:45;;;;;;;6.82;2.25;;;;;;;;;;8367013;28;20051;-87
2022/05/31 08:09:49;;;;;;;6.03;2.58;;;;;;;;;;8367305;28;20124;-86
2022/05/31 08:13:53;;;;;;;6.13;2.10;;;;;;;;;;8366254;28;20063;-86
2022/05/31 08:17:55;;;;;;;4.00;2.25;;;;;;;;;;8366540;28;20131;-86
2022/05/31 08:21:58;;;;;;;4.82;2.28;;;;;;;;;;8366939;28;20045;-86
2022/05/31 08:26:03;;;;;;;4.00;2.10;;;;;;;;;;8366287;28;20481;-86
2022/05/31 08:30:07;;;;;;;4.35;2.38;;;;;;;;;;8366281;28;20044;-86
2022/05/31 08:34:11;;;;;;;4.97;2.00;;;;;;;;;;8365978;28;20091;-87
2022/05/31 08:38:15;;;;;;;3.97;2.10;;;;;;;;;;8365867;28;20068;-86
2022/05/31 08:42:22;;;;;;;4.85;2.10;;;;;;;;;;8365739;28;20056;-87
2022/05/31 08:46:33;;;;;;;2.17;1.60;;;;;;;;;;8365728;28;20069;-89
2022/05/31 08:59:40;;;;;;;2.67;1.80;;;;;;;;;;8365404;28;20045;-87
2022/05/31 09:03:45;;;;;;;4.90;1.93;;;;;;;;;;8365805;28;20064;-87
2022/05/31 09:07:53;;;;;;;5.07;2.45;;;;;;;;;;8364999;28;20291;-87
2022/05/31 09:12:01;;;;;;;4.25;2.00;;;;;;;;;;8364818;28;20049;-87
2022/05/31 09:16:14;;;;;;;3.88;1.75;;;;;;;;;;8364585;28;20147;-86
2022/05/31 09:20:24;;;;;;;3.25;2.00;;;;;;;;;;8365081;28;20420;-87
2022/05/31 09:24:26;;;;;;;3.80;2.00;;;;;;;;;;8364510;28;20140;-86
2022/05/31 09:28:38;;;;;;;4.38;2.05;;;;;;;;;;8364382;28;20086;-86
2022/05/31 09:32:52;;;;;;;5.53;2.20;;;;;;;;;;8364614;28;20128;-89
2022/05/31 09:37:07;;;;;;;4.88;2.30;;;;;;;;;;8364210;28;20063;-87
2022/05/31 09:41:16;;;;;;;5.65;2.10;;;;;;;;;;8359361;28;20056;-86
2022/05/31 09:45:20;;;;;;;3.05;2.05;;;;;;;;;;8364148;28;20041;-87
2022/05/31 09:49:36;;;;;;;3.65;2.30;;;;;;;;;;8363857;28;20049;-86
2022/05/31 09:58:03;;;;;;;5.90;2.43;;;;;;;;;;8364100;28;20067;-86
2022/05/31 10:02:19;;;;;;;4.03;2.30;;;;;;;;;;8363606;28;20049;-85
2022/05/31 10:06:26;;;;;;;4.22;2.17;;;;;;;;;;8363321;28;20049;-86
2022/05/31 10:10:36;;;;;;;3.58;2.35;;;;;;;;;;8362796;28;20047;-86
2022/05/31 10:14:42;;;;;;;4.78;2.25;;;;;;;;;;8356941;28;20416;-85
2022/05/31 10:18:51;;;;;;;4.38;2.50;;;;;;;;;;8363068;28;20049;-86
2022/05/31 10:22:58;;;;;;;3.17;2.10;;;;;;;;;;8357026;28;20509;-86
2022/05/31 10:27:07;;;;;;;7.10;2.25;;;;;;;;;;8357556;28;20067;-87
2022/05/31 10:31:18;;;;;;;3.83;2.08;;;;;;;;;;8362969;28;20045;-87
2022/05/31 10:35:25;;;;;;;3.70;2.33;;;;;;;;;;8357960;28;20041;-85
2022/05/31 10:39:32;;;;;;;4.50;2.05;;;;;;;;;;8362860;28;20125;-86
2022/05/31 10:43:39;;;;;;;2.67;2.08;;;;;;;;;;8363201;28;20553;-85
2022/05/31 10:47:41;;;;;;;3.47;2.40;;;;;;;;;;8362842;28;20088;-85
2022/05/31 10:51:56;;;;;;;3.63;2.03;;;;;;;;;;8362741;28;20187;-88
2022/05/31 10:56:10;;;;;;;18.10;2.95;;;;;;;;;;8363069;28;20049;-89
2022/05/31 11:00:20;;;;;;;10.43;3.78;;;;;;;;;;8363038;28;20480;-88
2022/05/31 11:04:42;;;;;;;10.88;3.03;;;;;;;;;;8362654;28;20047;-87
2022/05/31 11:13:33;;;;;;;13.52;7.18;;;;;;;;;;8359196;28;20071;-88
2022/05/31 11:17:57;;;;;;;7.65;3.05;;;;;;;;;;8362901;28;20045;-87
2022/05/31 11:22:13;;;;;;;2.95;1.92;;;;;;;;;;8356686;28;20555;-87
2022/05/31 11:26:39;;;;;;;3.15;2.35;;;;;;;;;;8368267;28;20447;-87
2022/05/31 11:30:59;;;;;;;8.80;3.08;;;;;;;;;;8368787;28;20049;-86
2022/05/31 11:35:15;;;;;;;6.90;2.60;;;;;;;;;;8368505;28;20456;-87
2022/05/31 11:39:31;;;;;;;3.72;2.00;;;;;;;;;;8367943;28;20041;-87
2022/05/31 11:43:54;;;;;;;3.03;2.05;;;;;;;;;;8367670;28;20129;-86
2022/05/31 11:48:18;;;;;;;4.57;1.80;;;;;;;;;;8367556;28;20136;-85
2022/05/31 11:52:39;;;;;;;7.82;2.08;;;;;;;;;;8367387;28;20041;-85
2022/05/31 11:56:48;;;;;;;2.38;1.70;;;;;;;;;;8362579;28;20095;-86
2022/05/31 12:01:03;;;;;;;5.70;1.80;;;;;;;;;;8367226;28;20051;-86
2022/05/31 12:05:15;;;;;;;2.17;1.80;;;;;;;;;;8367075;28;20409;-85
2022/05/31 12:09:24;;;;;;;4.22;1.95;;;;;;;;;;8367022;28;20471;-86
2022/05/31 12:13:28;;;;;;;5.70;2.40;;;;;;;;;;8367076;28;20503;-85
2022/05/31 12:17:38;;;;;;;6.72;1.92;;;;;;;;;;8366512;28;20439;-85
2022/05/31 12:21:48;;;;;;;4.53;1.90;;;;;;;;;;8366593;28;20090;-86
2022/05/31 12:25:54;;;;;;;2.30;1.63;;;;;;;;;;8366534;28;20048;-85
2022/05/31 12:30:03;;;;;;;5.20;3.20;;;;;;;;;;8366366;28;20109;-85
2022/05/31 12:34:28;;;;;;;3.40;1.80;;;;;;;;;;8365687;28;20045;-84
2022/05/31 12:38:56;;;;;;;2.05;1.70;;;;;;;;;;8365732;28;20072;-85
2022/05/31 12:42:58;;;;;;;3.47;1.98;;;;;;;;;;8365942;28;20091;-85
2022/05/31 12:47:14;;;;;;;2.83;1.70;;;;;;;;;;8365876;28;20056;-86
2022/05/31 12:51:24;;;;;;;2.63;1.70;;;;;;;;;;8365691;28;20052;-86
2022/05/31 12:55:57;;;;;;;2.30;1.70;;;;;;;;;;8365582;28;20049;-85
2022/05/31 13:00:00;;;;;;;3.35;1.63;;;;;;;;;;8365838;28;20041;-87
2022/05/31 13:04:20;;;;;;;1.98;1.70;;;;;;;;;;8365235;28;20454;-86
2022/05/31 13:08:44;;;;;;;2.40;1.80;;;;;;;;;;8365131;28;20381;-88
2022/05/31 13:21:32;;;;;;;4.45;1.90;;;;;;;;;;8364974;28;20383;-87
2022/05/31 13:25:42;;;;;;;2.33;1.70;;;;;;;;;;8364441;28;20048;-86
2022/05/31 13:29:46;;;;;;;3.20;2.00;;;;;;;;;;8364384;28;20405;-87
2022/05/31 13:33:58;;;;;;;2.58;1.80;;;;;;;;;;8364100;28;20041;-86
2022/05/31 13:38:03;;;;;;;2.28;1.80;;;;;;;;;;8364263;28;20053;-86
2022/05/31 13:42:07;;;;;;;2.88;2.08;;;;;;;;;;8364080;28;20408;-88
2022/05/31 13:46:19;;;;;;;5.97;2.85;;;;;;;;;;8363208;28;20055;-87
2022/05/31 13:50:26;;;;;;;3.85;2.30;;;;;;;;;;8363871;28;20041;-86
2022/05/31 13:54:30;;;;;;;5.68;2.70;;;;;;;;;;8364165;28;20041;-86
2022/05/31 13:58:37;;;;;;;3.83;2.72;;;;;;;;;;8363605;28;20056;-85
2022/05/31 14:02:52;;;;;;;3.08;2.13;;;;;;;;;;8364101;28;20045;-87
2022/05/31 14:06:58;;;;;;;4.50;2.28;;;;;;;;;;8363558;28;20063;-90
2022/05/31 14:11:09;;;;;;;2.10;1.85;;;;;;;;;;8363263;28;20041;-89
2022/05/31 14:15:22;;;;;;;2.80;2.08;;;;;;;;;;8362942;28;20053;-92
2022/05/31 14:19:29;;;;;;;3.05;2.00;;;;;;;;;;8357769;28;20072;-84
2022/05/31 14:23:36;;;;;;;5.38;2.13;;;;;;;;;;8357696;28;20063;-84
2022/05/31 14:27:42;;;;;;;3.15;2.00;;;;;;;;;;8357353;28;20045;-85
2022/05/31 14:31:47;;;;;;;5.28;2.42;;;;;;;;;;8356876;28;20413;-85
2022/05/31 14:35:53;;;;;;;2.83;2.10;;;;;;;;;;8356978;28;20404;-86
2022/05/31 14:40:05;;;;;;;3.10;2.10;;;;;;;;;;8356649;28;20514;-84
2022/05/31 14:44:29;;;;;;;4.10;2.28;;;;;;;;;;8362850;28;20041;-85
2022/05/31 14:48:48;;;;;;;4.55;2.28;;;;;;;;;;8362711;28;20439;-85
2022/05/31 14:52:54;;;;;;;4.30;2.28;;;;;;;;;;8360944;28;20067;-85
2022/05/31 14:56:56;;;;;;;3.60;2.35;;;;;;;;;;8364690;28;20045;-84
2022/05/31 15:01:01;;;;;;;4.05;2.50;;;;;;;;;;8369048;28;20104;-83
2022/05/31 15:05:06;;;;;;;4.10;2.50;;;;;;;;;;8368900;28;20052;-85
2022/05/31 15:09:27;;;;;;;2.97;2.20;;;;;;;;;;8368822;28;20045;-84
2022/05/31 15:22:10;;;;;;;3.63;2.50;;;;;;;;;;8368395;28;20045;-84
2022/05/31 15:26:15;;;;;;;4.25;2.13;;;;;;;;;;8368351;28;20048;-84
2022/05/31 15:30:20;;;;;;;3.92;2.30;;;;;;;;;;8368221;28;20099;-84
2022/05/31 15:34:22;;;;;;;3.50;2.13;;;;;;;;;;8367882;28;20140;-84
2022/05/31 15:38:27;;;;;;;4.22;2.15;;;;;;;;;;8367900;28;20053;-84
2022/05/31 15:42:32;;;;;;;2.50;2.10;;;;;;;;;;8368259;28;20621;-85
2022/05/31 15:46:37;;;;;;;3.95;2.35;;;;;;;;;;8367773;28;20045;-85
2022/05/31 15:50:39;;;;;;;3.22;2.35;;;;;;;;;;8367614;28;20048;-85
2022/05/31 15:54:47;;;;;;;3.60;2.25;;;;;;;;;;8367888;28;20064;-88
2022/05/31 15:58:51;;;;;;;5.90;2.60;;;;;;;;;;8367757;28;20413;-84
2022/05/31 16:02:54;;;;;;;4.85;3.08;;;;;;;;;;8362019;28;20340;-84
2022/05/31 16:06:58;;;;;;;12.45;8.52;;;;;;;;;;8367465;28;20122;-86
2022/05/31 16:11:01;;;;;;;15.25;11.20;;;;;;;;;;8366625;28;20052;-86
2022/05/31 16:15:07;;;;;;;10.43;7.90;;;;;;;;;;8366330;28;20389;-86
2022/05/31 16:19:10;;;;;;;4.50;2.60;;;;;;;;;;8368117;28;20045;-87
2022/05/31 16:23:19;;;;;;;4.10;2.70;;;;;;;;;;8366575;28;20508;-87
2022/05/31 16:27:26;;;;;;;10.77;6.72;;;;;;;;;;8366491;28;20230;-84
2022/05/31 16:31:30;;;;;;;5.65;3.90;;;;;;;;;;8366331;28;20044;-84
2022/05/31 16:35:33;;;;;;;6.25;3.70;;;;;;;;;;8366617;28;20472;-87
2022/05/31 16:43:58;;;;;;;45.15;24.50;;;;;;;;;;8366721;28;20052;-86
2022/05/31 16:48:02;;;;;;;46.20;24.95;;;;;;;;;;8365802;28;20111;-86
2022/05/31 16:52:06;;;;;;;27.88;16.38;;;;;;;;;;8365819;28;20052;-86
2022/05/31 16:56:09;;;;;;;80.15;43.20;;;;;;;;;;8365371;28;20053;-86
2022/05/31 17:00:14;;;;;;;22.05;15.07;;;;;;;;;;8365382;28;20045;-86
2022/05/31 17:04:18;;;;;;;7.90;6.13;;;;;;;;;;8365307;28;20036;-87
2022/05/31 17:17:02;;;;;;;8.30;5.37;;;;;;;;;;8364717;28;20397;-85
2022/05/31 17:21:07;;;;;;;21.58;11.07;;;;;;;;;;8363764;28;20488;-85
2022/05/31 17:25:11;;;;;;;6.38;4.57;;;;;;;;;;8364840;28;20041;-85
2022/05/31 17:29:14;;;;;;;4.78;3.78;;;;;;;;;;8364533;28;20123;-85
2022/05/31 17:33:22;;;;;;;11.50;5.68;;;;;;;;;;8364213;28;20056;-85
2022/05/31 17:37:27;;;;;;;11.45;4.82;;;;;;;;;;8359010;28;20049;-86
2022/05/31 17:41:33;;;;;;;6.80;4.93;;;;;;;;;;8358809;28;20416;-85
2022/05/31 17:45:36;;;;;;;21.55;14.70;;;;;;;;;;8358037;28;20049;-86
2022/05/31 17:49:41;;;;;;;23.70;15.73;;;;;;;;;;8357561;28;20063;-86
2022/05/31 17:53:45;;;;;;;18.38;12.43;;;;;;;;;;8364175;28;20369;-85
2022/05/31 17:57:49;;;;;;;11.98;7.43;;;;;;;;;;8363708;28;20049;-86
2022/05/31 18:01:52;;;;;;;16.38;11.20;;;;;;;;;;8363894;28;20094;-86
2022/05/31 18:05:57;;;;;;;9.15;6.13;;;;;;;;;;8363884;28;20048;-86
2022/05/31 18:10:04;;;;;;;17.17;11.32;;;;;;;;;;8364332;28;20044;-85
2022/05/31 18:14:08;;;;;;;15.68;8.25;;;;;;;;;;8363039;28;20056;-86
2022/05/31 18:18:10;;;;;;;18.88;11.93;;;;;;;;;;8363933;28;20049;-85
2022/05/31 18:22:18;;;;;;;28.40;21.23;;;;;;;;;;8363185;28;20045;-86
2022/05/31 18:26:23;;;;;;;13.27;8.90;;;;;;;;;;8363100;28;20045;-86
2022/05/31 18:30:26;;;;;;;8.70;5.05;;;;;;;;;;8364060;28;20056;-85
2022/05/31 18:34:29;;;;;;;10.27;8.38;;;;;;;;;;8369824;28;20057;-90
2022/05/31 18:38:44;;;;;;;12.10;8.32;;;;;;;;;;8369885;28;20052;-86
2022/05/31 18:42:49;;;;;;;16.52;8.85;;;;;;;;;;8369714;28;20049;-86
2022/05/31 18:46:52;;;;;;;13.32;8.35;;;;;;;;;;8369670;28;20079;-85
2022/05/31 18:50:55;;;;;;;9.32;5.40;;;;;;;;;;8370037;28;20049;-86
2022/05/31 18:54:59;;;;;;;9.10;5.80;;;;;;;;;;8369208;28;20484;-85
2022/05/31 18:59:05;;;;;;;10.50;4.72;;;;;;;;;;8369755;28;20497;-85
2022/05/31 19:03:11;;;;;;;6.78;4.90;;;;;;;;;;8367302;28;20045;-86
2022/05/31 19:07:14;;;;;;;6.30;4.55;;;;;;;;;;8353761;28;20045;-85
2022/05/31 19:11:20;;;;;;;10.05;4.90;;;;;;;;;;8364284;28;20044;-84
2022/05/31 19:15:25;;;;;;;8.73;5.30;;;;;;;;;;8368780;28;20060;-84
2022/05/31 19:19:28;;;;;;;8.48;6.55;;;;;;;;;;8362450;28;20049;-85
2022/05/31 19:23:33;;;;;;;7.65;6.00;;;;;;;;;;8362920;28;20049;-85
2022/05/31 19:27:42;;;;;;;7.30;5.47;;;;;;;;;;8358498;28;20077;-89
2022/05/31 19:31:51;;;;;;;8.38;5.93;;;;;;;;;;8366013;28;20501;-85
2022/05/31 19:35:56;;;;;;;7.65;5.57;;;;;;;;;;8364380;28;20082;-85
2022/05/31 19:40:00;;;;;;;8.65;6.10;;;;;;;;;;8364157;28;20111;-85
2022/05/31 19:44:05;;;;;;;7.63;5.57;;;;;;;;;;8362782;28;20072;-85
2022/05/31 19:48:10;;;;;;;8.90;5.75;;;;;;;;;;8367744;28;20157;-85
2022/05/31 19:52:14;;;;;;;7.25;5.55;;;;;;;;;;8367679;28;20056;-89
2022/05/31 19:56:17;;;;;;;7.18;5.15;;;;;;;;;;8367384;28;20412;-85
2022/05/31 20:00:22;;;;;;;5.80;4.60;;;;;;;;;;8367838;28;20056;-87
2022/05/31 20:04:26;;;;;;;7.82;5.22;;;;;;;;;;8367595;28;20124;-84
2022/05/31 20:12:52;;;;;;;6.93;5.70;;;;;;;;;;8362545;28;20049;-84
2022/05/31 20:16:55;;;;;;;7.78;5.15;;;;;;;;;;8366492;28;20412;-85
2022/05/31 20:21:07;;;;;;;10.05;5.70;;;;;;;;;;8367135;28;20405;-84
2022/05/31 20:25:13;;;;;;;8.00;5.13;;;;;;;;;;8366583;28;20045;-84
2022/05/31 20:29:18;;;;;;;7.38;5.32;;;;;;;;;;8366512;28;20044;-85
2022/05/31 20:33:22;;;;;;;7.15;4.65;;;;;;;;;;8366689;28;20412;-84
2022/05/31 20:37:28;;;;;;;7.60;4.60;;;;;;;;;;8359984;28;20051;-84
2022/05/31 20:41:36;;;;;;;7.55;5.05;;;;;;;;;;8366041;28;20041;-85
2022/05/31 20:45:38;;;;;;;6.57;4.53;;;;;;;;;;8365926;28;20041;-84
2022/05/31 20:49:42;;;;;;;7.88;5.50;;;;;;;;;;8366198;28;20052;-84
2022/05/31 20:53:46;;;;;;;9.80;5.38;;;;;;;;;;8365271;28;20044;-84
2022/05/31 20:57:49;;;;;;;8.48;5.40;;;;;;;;;;8365344;28;20507;-85
2022/05/31 21:01:53;;;;;;;5.97;4.97;;;;;;;;;;8365930;28;20464;-84
2022/05/31 21:05:57;;;;;;;6.43;5.22;;;;;;;;;;8365317;28;20041;-84
2022/05/31 21:10:01;;;;;;;7.30;5.32;;;;;;;;;;8365102;28;20413;-85
2022/05/31 21:14:04;;;;;;;7.90;5.35;;;;;;;;;;8364632;28;20060;-85
2022/05/31 21:18:07;;;;;;;7.57;5.25;;;;;;;;;;8364861;28;20048;-84
2022/05/31 21:22:12;;;;;;;8.23;5.20;;;;;;;;;;8364807;28;20059;-85
2022/05/31 21:26:22;;;;;;;7.20;5.60;;;;;;;;;;8365132;28;20255;-85
2022/05/31 21:30:25;;;;;;;10.43;5.57;;;;;;;;;;8364718;28;20059;-85
2022/05/31 21:34:29;;;;;;;7.25;5.22;;;;;;;;;;8364688;28;20045;-85
2022/05/31 21:38:33;;;;;;;7.47;5.15;;;;;;;;;;8364757;28;20449;-84
2022/05/31 21:42:37;;;;;;;7.95;5.85;;;;;;;;;;8364206;28;20052;-85
2022/05/31 21:46:40;;;;;;;7.10;5.10;;;;;;;;;;8364332;28;20045;-86
2022/05/31 21:50:50;;;;;;;9.10;5.68;;;;;;;;;;8364110;28;20075;-85
2022/05/31 21:54:55;;;;;;;6.50;5.43;;;;;;;;;;8364287;28;20045;-85
2022/05/31 21:59:01;;;;;;;9.48;5.25;;;;;;;;;;8364270;28;20045;-85
2022/05/31 22:03:04;;;;;;;6.95;4.95;;;;;;;;;;8363670;28;20041;-85
2022/05/31 22:07:07;;;;;;;7.35;5.53;;;;;;;;;;8362970;28;20049;-85
2022/05/31 22:11:12;;;;;;;6.75;5.07;;;;;;;;;;8363842;28;20051;-85
2022/05/31 22:15:20;;;;;;;6.53;5.50;;;;;;;;;;8363066;28;20242;-85
2022/05/31 22:19:22;;;;;;;8.70;5.40;;;;;;;;;;8363411;28;20055;-85
2022/05/31 22:23:27;;;;;;;7.43;5.40;;;;;;;;;;8363286;28;20045;-85
2022/05/31 22:27:30;;;;;;;6.95;5.45;;;;;;;;;;8363074;28;20060;-85
2022/05/31 22:31:34;;;;;;;7.97;6.00;;;;;;;;;;8362992;28;20056;-85
2022/05/31 22:35:44;;;;;;;7.40;5.38;;;;;;;;;;8362937;28;20053;-85
2022/05/31 22:39:56;;;;;;;8.32;6.18;;;;;;;;;;8363002;28;20045;-85
2022/05/31 22:44:01;;;;;;;10.02;6.45;;;;;;;;;;8363028;28;20045;-85
2022/05/31 22:48:06;;;;;;;6.55;5.78;;;;;;;;;;8363356;28;20067;-86
2022/05/31 22:52:09;;;;;;;7.70;6.25;;;;;;;;;;8363400;28;20041;-85
2022/05/31 22:56:55;;;;;;;10.95;6.40;;;;;;;;;;8363291;28;20477;-85
2022/05/31 23:01:08;;;;;;;10.38;6.00;;;;;;;;;;8363075;28;20044;-85
2022/05/31 23:05:18;;;;;;;7.65;6.10;;;;;;;;;;8357869;28;20045;-94
2022/05/31 23:09:23;;;;;;;9.25;7.25;;;;;;;;;;8362728;28;20041;-86
2022/05/31 23:13:27;;;;;;;8.65;6.97;;;;;;;;;;8362459;28;20045;-85
2022/05/31 23:17:33;;;;;;;8.98;6.22;;;;;;;;;;8363113;28;20488;-86
2022/05/31 23:21:43;;;;;;;11.57;7.63;;;;;;;;;;8368485;28;20068;-86
2022/05/31 23:25:49;;;;;;;9.87;7.33;;;;;;;;;;8368485;28;20053;-86
2022/05/31 23:29:54;;;;;;;11.23;8.15;;;;;;;;;;8368375;28;20124;-86
2022/05/31 23:34:08;;;;;;;9.23;7.50;;;;;;;;;;8367952;28;20135;-85
2022/05/31 23:38:15;;;;;;;10.05;8.02;;;;;;;;;;8367957;28;20132;-86
2022/05/31 23:42:26;;;;;;;10.52;7.78;;;;;;;;;;8368010;28;20048;-85
2022/05/31 23:46:30;;;;;;;11.77;7.82;;;;;;;;;;8367985;28;20049;-85
2022/05/31 23:50:37;;;;;;;9.68;7.45;;;;;;;;;;8367657;28;20041;-85
2022/05/31 23:54:43;;;;;;;10.40;7.97;;;;;;;;;;8367583;28;20048;-85
2022/05/31 23:58:50;;;;;;;9.13;7.25;;;;;;;;;;8367915;28;20104;-85
